South Chatham, MA

10:38 PM EDT on October 20, 2014 (GMT -0400)
south chatham | Change Station
CLOSE
Current Station
Personal Weather Station
Location: South Chatham, MA
Elevation: 50 ft
Nearby Weather Stations

Elev 50 ft 41.67 °N, 70.01 °W | Updated 8 minutes ago

Mostly Cloudy
Mostly Cloudy
51.1 °F
Feels Like 51.1 °F
N
0.0
Wind Variable Wind from WSW
Gusts 10.0 mph

Today
High -- | Low -- °F
--% Chance of Precip.
Yesterday
High -- | Low -- °F
Precip. -- in
6:57 AM 5:51 PM
Waning Crescent, 8% visible
Pressure 30.05 in
Visibility 10.0 miles
Clouds Mostly Cloudy 3100 ft
Dew Point 46 °F
Humidity 83%
Rainfall 0.00 in
Snow Depth Not available.
UV 0 out of 12
Pollen 1.60 out of 12
Air Quality Not available.
Flu Activity No Activity
METAR KCQX 210152Z AUTO 00000KT 10SM BKN031 11/07 A3005 RMK AO2 SLP176 T01060067

More Conditions Fewer Conditions

Pressure 30.05 in
Visibility 10.0 miles
Clouds Mostly Cloudy 3100 ft
Dew Point 46 °F
Humidity 83%
Rainfall 0.00 in
Snow Depth Not available.
UV 0 out of 12
Pollen 1.60 out of 12
Air Quality Not available.
Flu Activity No Activity
METAR KCQX 210152Z AUTO 00000KT 10SM BKN031 11/07 A3005 RMK AO2 SLP176 T01060067

More Conditions Fewer Conditions

10-Day Weather Forecast

Almanac

Astronomy

Oct. 20, 2014 Rise Set
Actual Time 6:57 AM EDT 5:51 PM EDT
Civil Twilight 6:29 AM EDT 6:19 PM EDT
Nautical Twilight 5:57 AM EDT 6:51 PM EDT
Astronomical Twilight 5:25 AM EDT 7:23 PM EDT
Moon 3:40 AM EDT (10/20) 4:14 PM EDT (10/20)
Length of Visible Light 11h 49m
Length of Day
10h 53m
Tomorrow will be 2m 39s shorter.
Waning Crescent, 8% of the Moon is Illuminated
Today
Waning Crescent
Oct 23
New
Oct 30
First Quarter
Nov 6
Full
Nov 14
Last Quarter

Today's Extremes

State Highs State Lows

Community

WunderPhotos

Upload Photos

1,763,577 photos uploaded!

Nearby

Air Quality

  Air Quality AQ Index Pollutant
Yesterday Good
OZONE
Monday Good
PM2.5
Monday Good
OZONE
Tuesday Good
PM2.5
Wednesday Good
PM2.5
Thursday Good
PM2.5

Snow Depth

Station Depth Elevation
No new snow has been reported.

Earthquake Activity

City Distance Mag. Time & Date
No recent earthquake activity has been reported nearby.
Minimum magnitude displayed is 2.5.

Coastal Water Temperatures

Place Temperature
Nantucket Island, MA 59.0 °F
Woods Hole, MA 62.1 °F
Fall River, MA 64.0 °F
Boston, MA 57.0 °F

Nearby Weather Stations